Flag for USA

Past Weather in 37°31'46.8"N, 85°17'24.7"W, USA — Yesterday and Last 2 Weeks

Currently: 72 °F. Clear. (Weather station: Somerset Weather Reporting Station, USA). See more current weather

Past Weather in 37°31'46.8"N, 85°17'24.7"W — Graph

°F

37°31'46.8"N, 85°17'24.7"W Temperature Yesterday

Maximum temperature yesterday: 88 °F (at 12:55 pm)
Minimum temperature yesterday: 73 °F (at 5:15 am)
Average temperature yesterday: 78 °F

High & Low Weather Summary for the Past Weeks

 TemperatureHumidityPressure
High95 °F (Jul 4, 3:15 pm)100% (Jul 4, 3:55 am)30.22 "Hg (Jul 4, 3:55 am)
Low63 °F (Jul 11, 5:15 am)39% (Jul 14, 4:55 pm)29.77 "Hg (Jul 10, 1:35 am)
Average80 °F76%30.00 "Hg
* Reported Jul 3 10:35 pm — Jul 18 10:15 pm, 37°31'46.8"N, 85°17'24.7"W. Weather by CustomWeather, © 2024

Note: Actual official high and low records may vary slightly from our data, if they occured in-between our weather recording intervals... More about our weather records

37°31'46.8"N, 85°17'24.7"W Weather History for the Previous 24 Hours

Scroll right to see more
 ConditionsComfort  
Time TempWeatherWind HumidityBarometerVisibility
10:15 pm
Thu, Jul 18
73 °FClear.7 mph61%30.07 "Hg10 mi
8:55 pm77 °FSunny.7 mph54%30.05 "Hg10 mi
8:15 pm79 °FSunny.6 mph51%30.04 "Hg10 mi
7:55 pm81 °FScattered clouds.7 mph48%30.04 "Hg10 mi
7:35 pm82 °FScattered clouds.8 mph45%30.04 "Hg10 mi
7:15 pm82 °FSunny.9 mph45%30.03 "Hg10 mi
6:55 pm81 °FSunny.7 mph48%30.03 "Hg10 mi
6:15 pm82 °FPassing clouds.5 mph42%30.03 "Hg10 mi
5:55 pm82 °FSunny.5 mph42%30.03 "Hg10 mi
5:15 pm82 °FSunny.6 mph45%30.03 "Hg10 mi
4:55 pm84 °FSunny.8 mph43%30.04 "Hg10 mi
4:15 pm84 °FPassing clouds.9 mph43%30.03 "Hg10 mi
3:55 pm84 °FPassing clouds.6 mph45%30.04 "Hg10 mi
3:15 pm84 °FSunny.10 mph45%30.05 "Hg10 mi
2:55 pm84 °FSunny.7 mph45%30.05 "Hg10 mi
2:15 pm82 °FPassing clouds.10 mph45%30.06 "Hg10 mi
1:55 pm81 °FScattered clouds.7 mph48%30.06 "Hg10 mi
1:15 pm79 °FSunny.9 mph54%30.07 "Hg10 mi
12:55 pm77 °FSunny.8 mph57%30.07 "Hg10 mi
12:15 pm75 °FPassing clouds.7 mph69%30.07 "Hg10 mi
11:55 am73 °FScattered clouds.8 mph74%30.07 "Hg10 mi
11:15 am73 °FPassing clouds.7 mph74%30.06 "Hg10 mi
10:55 am72 °FScattered clouds.6 mph83%30.06 "Hg10 mi
10:15 am72 °FPartly sunny.10 mph83%30.06 "Hg10 mi
9:55 am72 °FPartly sunny.8 mph88%30.05 "Hg10 mi
9:15 am72 °FScattered clouds.8 mph88%30.03 "Hg10 mi
8:55 am70 °FCloudy.8 mph94%30.03 "Hg9 mi
8:35 am70 °FOvercast.9 mph100%30.03 "Hg10 mi
8:15 am70 °FMostly cloudy.5 mph100%30.02 "Hg10 mi
7:55 am70 °FCloudy.5 mph100%30.02 "Hg10 mi
6:55 am72 °FCloudy.6 mph100%30.00 "Hg9 mi
6:15 am72 °FLight rain. Mostly cloudy.No wind100%29.99 "Hg8 mi
5:55 am70 °FLight rain. Partly cloudy.No wind100%29.99 "Hg7 mi
5:35 am70 °FHeavy rain. Fog.No wind100%29.98 "Hg2 mi
5:15 am72 °FLight rain. Fog.No wind100%29.98 "Hg4 mi
4:55 am70 °FLight rain. Fog.3 mph100%29.98 "Hg4 mi
4:15 am70 °FLight rain. Mostly cloudy.No wind100%29.97 "Hg7 mi
3:55 am70 °FLight rain. Fog.6 mph100%29.96 "Hg5 mi
3:15 am73 °FLight rain. Mostly cloudy.8 mph94%29.97 "Hg10 mi
2:55 am75 °FMostly cloudy.6 mph100%29.96 "Hg10 mi
2:35 am75 °FLight rain. Mostly cloudy.5 mph100%29.96 "Hg10 mi
2:15 am75 °FThundershowers. Low clouds.5 mph100%29.96 "Hg10 mi
1:55 am75 °FLow clouds.No wind100%29.97 "Hg10 mi
1:15 am75 °FLow clouds.No wind100%29.98 "Hg10 mi
12:55 am75 °FLow clouds.No wind100%29.97 "Hg10 mi
12:35 am75 °FLow clouds.No wind100%29.97 "Hg10 mi
12:15 am75 °FLow clouds.No wind100%29.97 "Hg10 mi
11:55 pm
Wed, Jul 17
75 °FLow clouds.No wind100%29.98 "Hg10 mi
11:35 pm75 °FMostly cloudy.No wind100%29.97 "Hg10 mi
11:15 pm75 °FPassing clouds.No wind100%29.98 "Hg10 mi
Weather by CustomWeather, © 2024

See weather overview